sensor_id;sensor_type;location;lat;lon;timestamp;pressure;altitude;pressure_sealevel;temperature;humidity
25080;BME280;13071;48.868;9.996;2023-04-25T00:02:19;95862.91;;;7.27;87.32
25080;BME280;13071;48.868;9.996;2023-04-25T00:04:45;95865.34;;;7.20;87.86
25080;BME280;13071;48.868;9.996;2023-04-25T00:07:15;95865.66;;;7.18;87.84
25080;BME280;13071;48.868;9.996;2023-04-25T00:09:42;95871.25;;;7.13;88.61
25080;BME280;13071;48.868;9.996;2023-04-25T00:12:08;95870.13;;;7.14;88.75
25080;BME280;13071;48.868;9.996;2023-04-25T00:14:35;95864.41;;;7.16;88.79
25080;BME280;13071;48.868;9.996;2023-04-25T00:17:02;95865.66;;;7.18;87.91
25080;BME280;13071;48.868;9.996;2023-04-25T00:19:29;95871.78;;;7.27;87.54
25080;BME280;13071;48.868;9.996;2023-04-25T00:21:56;95865.78;;;7.22;87.37
25080;BME280;13071;48.868;9.996;2023-04-25T00:24:24;95859.78;;;7.25;88.10
25080;BME280;13071;48.868;9.996;2023-04-25T00:26:50;95861.00;;;7.27;87.91
25080;BME280;13071;48.868;9.996;2023-04-25T00:29:17;95869.22;;;7.31;88.26
25080;BME280;13071;48.868;9.996;2023-04-25T00:31:43;95869.03;;;7.36;87.71
25080;BME280;13071;48.868;9.996;2023-04-25T00:34:10;95874.28;;;7.32;88.39
25080;BME280;13071;48.868;9.996;2023-04-25T00:36:36;95870.00;;;7.31;88.85
25080;BME280;13071;48.868;9.996;2023-04-25T00:39:03;95865.59;;;7.27;89.03
25080;BME280;13071;48.868;9.996;2023-04-25T00:41:33;95866.53;;;7.31;88.69
25080;BME280;13071;48.868;9.996;2023-04-25T00:44:00;95862.28;;;7.30;89.27
25080;BME280;13071;48.868;9.996;2023-04-25T00:46:28;95860.34;;;7.30;88.73
25080;BME280;13071;48.868;9.996;2023-04-25T00:48:55;95865.88;;;7.34;88.70
25080;BME280;13071;48.868;9.996;2023-04-25T00:51:22;95855.75;;;7.31;88.15
25080;BME280;13071;48.868;9.996;2023-04-25T00:53:49;95864.56;;;7.40;88.63
25080;BME280;13071;48.868;9.996;2023-04-25T00:56:16;95856.34;;;7.36;87.87
25080;BME280;13071;48.868;9.996;2023-04-25T00:58:44;95861.63;;;7.54;87.49
25080;BME280;13071;48.868;9.996;2023-04-25T01:01:11;95852.88;;;7.36;87.53
25080;BME280;13071;48.868;9.996;2023-04-25T01:03:39;95847.97;;;7.59;86.90
25080;BME280;13071;48.868;9.996;2023-04-25T01:06:07;95852.97;;;7.48;86.77
25080;BME280;13071;48.868;9.996;2023-04-25T01:08:34;95848.97;;;7.54;86.33
25080;BME280;13071;48.868;9.996;2023-04-25T01:11:01;95848.75;;;7.59;86.90
25080;BME280;13071;48.868;9.996;2023-04-25T01:13:28;95839.81;;;7.47;87.28
25080;BME280;13071;48.868;9.996;2023-04-25T01:15:56;95840.28;;;7.28;87.54
25080;BME280;13071;48.868;9.996;2023-04-25T01:18:22;95839.81;;;7.26;88.27
25080;BME280;13071;48.868;9.996;2023-04-25T01:20:50;95840.25;;;7.07;88.28
25080;BME280;13071;48.868;9.996;2023-04-25T01:23:19;95832.91;;;6.96;89.28
25080;BME280;13071;48.868;9.996;2023-04-25T01:25:47;95838.31;;;6.87;89.22
25080;BME280;13071;48.868;9.996;2023-04-25T01:28:14;95838.03;;;6.80;89.79
25080;BME280;13071;48.868;9.996;2023-04-25T01:30:40;95833.13;;;6.82;89.58
25080;BME280;13071;48.868;9.996;2023-04-25T01:33:08;95830.59;;;6.77;89.69
25080;BME280;13071;48.868;9.996;2023-04-25T01:35:35;95833.78;;;6.79;90.22
25080;BME280;13071;48.868;9.996;2023-04-25T01:38:01;95832.56;;;6.68;90.21
25080;BME280;13071;48.868;9.996;2023-04-25T01:40:30;95835.19;;;6.76;90.21
25080;BME280;13071;48.868;9.996;2023-04-25T01:42:57;95829.88;;;6.68;90.15
25080;BME280;13071;48.868;9.996;2023-04-25T01:45:24;95818.66;;;6.66;89.97
25080;BME280;13071;48.868;9.996;2023-04-25T01:47:51;95830.34;;;6.70;89.92
25080;BME280;13071;48.868;9.996;2023-04-25T01:50:18;95825.41;;;6.72;89.69
25080;BME280;13071;48.868;9.996;2023-04-25T01:52:45;95826.88;;;6.69;90.23
25080;BME280;13071;48.868;9.996;2023-04-25T01:55:12;95821.81;;;6.68;89.70
25080;BME280;13071;48.868;9.996;2023-04-25T01:57:40;95822.88;;;6.75;89.76
25080;BME280;13071;48.868;9.996;2023-04-25T02:00:07;95821.63;;;6.73;90.26
25080;BME280;13071;48.868;9.996;2023-04-25T02:02:35;95822.91;;;6.67;89.75
25080;BME280;13071;48.868;9.996;2023-04-25T02:05:02;95818.00;;;6.69;89.40
25080;BME280;13071;48.868;9.996;2023-04-25T02:07:29;95827.84;;;6.65;89.74
25080;BME280;13071;48.868;9.996;2023-04-25T02:09:55;95821.63;;;6.73;89.05
25080;BME280;13071;48.868;9.996;2023-04-25T02:12:22;95820.81;;;6.72;89.09
25080;BME280;13071;48.868;9.996;2023-04-25T02:14:50;95824.19;;;6.69;90.02
25080;BME280;13071;48.868;9.996;2023-04-25T02:17:16;95828.53;;;6.82;89.40
25080;BME280;13071;48.868;9.996;2023-04-25T02:19:43;95823.69;;;6.76;89.81
25080;BME280;13071;48.868;9.996;2023-04-25T02:22:10;95835.34;;;6.80;89.17
25080;BME280;13071;48.868;9.996;2023-04-25T02:24:36;95814.94;;;6.79;89.60
25080;BME280;13071;48.868;9.996;2023-04-25T02:27:03;95816.00;;;6.86;90.67
25080;BME280;13071;48.868;9.996;2023-04-25T02:29:30;95813.00;;;6.88;90.20
25080;BME280;13071;48.868;9.996;2023-04-25T02:31:57;95820.78;;;6.81;91.74
25080;BME280;13071;48.868;9.996;2023-04-25T02:34:24;95815.41;;;7.10;91.03
25080;BME280;13071;48.868;9.996;2023-04-25T02:36:51;95809.22;;;7.10;90.41
25080;BME280;13071;48.868;9.996;2023-04-25T02:39:17;95811.63;;;7.03;90.39
25080;BME280;13071;48.868;9.996;2023-04-25T02:41:44;95816.22;;;7.02;91.42
25080;BME280;13071;48.868;9.996;2023-04-25T02:44:11;95797.41;;;7.02;91.88
25080;BME280;13071;48.868;9.996;2023-04-25T02:46:37;95801.34;;;7.05;92.43
25080;BME280;13071;48.868;9.996;2023-04-25T02:49:05;95800.41;;;7.01;92.04
25080;BME280;13071;48.868;9.996;2023-04-25T02:51:32;95801.06;;;6.98;91.97
25080;BME280;13071;48.868;9.996;2023-04-25T02:53:59;95795.38;;;6.99;92.07
25080;BME280;13071;48.868;9.996;2023-04-25T02:56:25;95799.34;;;6.93;91.53
25080;BME280;13071;48.868;9.996;2023-04-25T02:58:52;95799.25;;;6.81;91.25
25080;BME280;13071;48.868;9.996;2023-04-25T03:01:19;95796.44;;;6.77;91.14
25080;BME280;13071;48.868;9.996;2023-04-25T03:03:45;95804.06;;;6.75;91.14
25080;BME280;13071;48.868;9.996;2023-04-25T03:06:13;95798.06;;;6.70;90.83
25080;BME280;13071;48.868;9.996;2023-04-25T03:08:40;95807.25;;;6.69;90.68
25080;BME280;13071;48.868;9.996;2023-04-25T03:11:07;95797.91;;;6.66;91.23
25080;BME280;13071;48.868;9.996;2023-04-25T03:13:33;95797.16;;;6.66;90.73
25080;BME280;13071;48.868;9.996;2023-04-25T03:16:00;95800.78;;;6.70;89.90
25080;BME280;13071;48.868;9.996;2023-04-25T03:18:27;95794.47;;;6.66;90.99
25080;BME280;13071;48.868;9.996;2023-04-25T03:20:53;95793.00;;;6.68;91.02
25080;BME280;13071;48.868;9.996;2023-04-25T03:23:21;95796.19;;;6.70;90.78
25080;BME280;13071;48.868;9.996;2023-04-25T03:25:48;95793.69;;;6.65;90.59
25080;BME280;13071;48.868;9.996;2023-04-25T03:28:14;95794.47;;;6.66;91.00
25080;BME280;13071;48.868;9.996;2023-04-25T03:30:41;95796.38;;;6.65;91.33
25080;BME280;13071;48.868;9.996;2023-04-25T03:33:07;95797.16;;;6.66;91.07
25080;BME280;13071;48.868;9.996;2023-04-25T03:35:34;95797.16;;;6.66;91.66
25080;BME280;13071;48.868;9.996;2023-04-25T03:38:00;95801.94;;;6.60;91.60
25080;BME280;13071;48.868;9.996;2023-04-25T03:40:28;95797.69;;;6.50;91.57
25080;BME280;13071;48.868;9.996;2023-04-25T03:42:55;95801.03;;;6.47;92.02
25080;BME280;13071;48.868;9.996;2023-04-25T03:45:22;95794.53;;;6.48;92.13
25080;BME280;13071;48.868;9.996;2023-04-25T03:47:48;95794.13;;;6.67;91.65
25080;BME280;13071;48.868;9.996;2023-04-25T03:50:15;95801.75;;;6.65;91.82
25080;BME280;13071;48.868;9.996;2023-04-25T03:52:43;95797.19;;;6.57;92.56
25080;BME280;13071;48.868;9.996;2023-04-25T03:55:09;95795.75;;;6.60;92.59
25080;BME280;13071;48.868;9.996;2023-04-25T03:57:37;95797.16;;;6.66;92.63
25080;BME280;13071;48.868;9.996;2023-04-25T04:00:05;95798.69;;;6.75;93.07
25080;BME280;13071;48.868;9.996;2023-04-25T04:02:33;95796.31;;;6.74;92.75
25080;BME280;13071;48.868;9.996;2023-04-25T04:05:01;95796.78;;;6.76;93.30
25080;BME280;13071;48.868;9.996;2023-04-25T04:07:28;95796.19;;;6.70;93.78
25080;BME280;13071;48.868;9.996;2023-04-25T04:09:54;95806.94;;;6.70;94.13
25080;BME280;13071;48.868;9.996;2023-04-25T04:12:21;95807.25;;;6.69;94.05
25080;BME280;13071;48.868;9.996;2023-04-25T04:14:49;95800.91;;;6.73;93.73
25080;BME280;13071;48.868;9.996;2023-04-25T04:17:15;95793.81;;;6.69;94.16
25080;BME280;13071;48.868;9.996;2023-04-25T04:19:42;95800.59;;;6.37;96.66
25080;BME280;13071;48.868;9.996;2023-04-25T04:22:09;95809.44;;;6.46;95.85
25080;BME280;13071;48.868;9.996;2023-04-25T04:24:36;95801.72;;;6.36;96.60
25080;BME280;13071;48.868;9.996;2023-04-25T04:27:02;95792.16;;;6.47;96.95
25080;BME280;13071;48.868;9.996;2023-04-25T04:29:29;95798.88;;;6.32;96.63
25080;BME280;13071;48.868;9.996;2023-04-25T04:31:57;95801.81;;;6.48;97.03
25080;BME280;13071;48.868;9.996;2023-04-25T04:34:26;95807.00;;;6.53;95.86
25080;BME280;13071;48.868;9.996;2023-04-25T04:36:52;95810.97;;;6.56;95.89
25080;BME280;13071;48.868;9.996;2023-04-25T04:39:19;95810.13;;;6.64;95.64
25080;BME280;13071;48.868;9.996;2023-04-25T04:41:46;95807.56;;;6.67;96.40
25080;BME280;13071;48.868;9.996;2023-04-25T04:44:13;95805.63;;;6.76;95.92
25080;BME280;13071;48.868;9.996;2023-04-25T04:46:40;95804.56;;;6.69;96.28
25080;BME280;13071;48.868;9.996;2023-04-25T04:49:08;95808.13;;;6.81;95.40
25080;BME280;13071;48.868;9.996;2023-04-25T04:51:35;95807.13;;;6.86;95.12
25080;BME280;13071;48.868;9.996;2023-04-25T04:54:03;95808.88;;;6.90;95.17
25080;BME280;13071;48.868;9.996;2023-04-25T04:56:30;95807.13;;;6.86;95.02
25080;BME280;13071;48.868;9.996;2023-04-25T04:58:57;95806.03;;;6.87;95.70
25080;BME280;13071;48.868;9.996;2023-04-25T05:01:24;95805.06;;;6.91;95.47
25080;BME280;13071;48.868;9.996;2023-04-25T05:03:51;95807.38;;;7.02;95.96
25080;BME280;13071;48.868;9.996;2023-04-25T05:06:19;95810.72;;;6.99;95.55
25080;BME280;13071;48.868;9.996;2023-04-25T05:08:46;95808.03;;;6.99;96.18
25080;BME280;13071;48.868;9.996;2023-04-25T05:11:12;95806.44;;;6.98;96.71
25080;BME280;13071;48.868;9.996;2023-04-25T05:13:39;95806.25;;;7.03;95.84
25080;BME280;13071;48.868;9.996;2023-04-25T05:16:06;95813.81;;;7.09;95.43
25080;BME280;13071;48.868;9.996;2023-04-25T05:18:32;95811.75;;;7.06;95.88
25080;BME280;13071;48.868;9.996;2023-04-25T05:20:59;95814.31;;;7.03;96.31
25080;BME280;13071;48.868;9.996;2023-04-25T05:23:27;95814.00;;;7.04;96.00
25080;BME280;13071;48.868;9.996;2023-04-25T05:25:55;95809.34;;;7.13;96.62
25080;BME280;13071;48.868;9.996;2023-04-25T05:28:22;95816.63;;;7.13;96.75
25080;BME280;13071;48.868;9.996;2023-04-25T05:30:49;95818.16;;;7.22;96.00
25080;BME280;13071;48.868;9.996;2023-04-25T05:33:15;95823.72;;;7.17;95.57
25080;BME280;13071;48.868;9.996;2023-04-25T05:35:42;95821.44;;;7.28;96.38
25080;BME280;13071;48.868;9.996;2023-04-25T05:38:09;95821.72;;;7.35;95.58
25080;BME280;13071;48.868;9.996;2023-04-25T05:40:37;95822.75;;;7.43;94.46
25080;BME280;13071;48.868;9.996;2023-04-25T05:43:03;95821.88;;;7.51;95.01
25080;BME280;13071;48.868;9.996;2023-04-25T05:45:30;95816.78;;;7.58;94.26
25080;BME280;13071;48.868;9.996;2023-04-25T05:47:56;95819.44;;;7.78;94.07
25080;BME280;13071;48.868;9.996;2023-04-25T05:50:23;95814.78;;;7.67;94.44
25080;BME280;13071;48.868;9.996;2023-04-25T05:52:50;95821.16;;;7.62;93.67
25080;BME280;13071;48.868;9.996;2023-04-25T05:55:17;95820.69;;;7.60;93.88
25080;BME280;13071;48.868;9.996;2023-04-25T05:57:45;95827.53;;;7.58;93.77
25080;BME280;13071;48.868;9.996;2023-04-25T06:00:13;95827.22;;;7.59;93.90
25080;BME280;13071;48.868;9.996;2023-04-25T06:02:41;95824.78;;;7.66;93.98
25080;BME280;13071;48.868;9.996;2023-04-25T06:05:08;95819.34;;;7.87;92.23
25080;BME280;13071;48.868;9.996;2023-04-25T06:07:35;95821.47;;;7.81;92.11
25080;BME280;13071;48.868;9.996;2023-04-25T06:10:01;95829.94;;;7.92;90.76
25080;BME280;13071;48.868;9.996;2023-04-25T06:12:31;95826.72;;;8.11;89.91
25080;BME280;13071;48.868;9.996;2023-04-25T06:14:59;95831.22;;;8.07;89.20
25080;BME280;13071;48.868;9.996;2023-04-25T06:17:26;95832.16;;;7.90;89.76
25080;BME280;13071;48.868;9.996;2023-04-25T06:19:52;95827.03;;;7.97;90.57
25080;BME280;13071;48.868;9.996;2023-04-25T06:22:19;95825.28;;;8.13;90.24
25080;BME280;13071;48.868;9.996;2023-04-25T06:24:45;95826.09;;;8.26;90.41
25080;BME280;13071;48.868;9.996;2023-04-25T06:27:12;95827.09;;;8.21;88.98
25080;BME280;13071;48.868;9.996;2023-04-25T06:29:39;95818.59;;;8.32;89.73
25080;BME280;13071;48.868;9.996;2023-04-25T06:32:07;95822.44;;;8.55;88.72
25080;BME280;13071;48.868;9.996;2023-04-25T06:34:33;95819.09;;;8.58;88.32
25080;BME280;13071;48.868;9.996;2023-04-25T06:37:00;95822.44;;;8.55;87.24
25080;BME280;13071;48.868;9.996;2023-04-25T06:39:26;95818.75;;;8.84;84.86
25080;BME280;13071;48.868;9.996;2023-04-25T06:41:53;95820.13;;;8.78;85.93
25080;BME280;13071;48.868;9.996;2023-04-25T06:44:19;95824.50;;;8.82;84.17
25080;BME280;13071;48.868;9.996;2023-04-25T06:46:48;95824.06;;;8.68;85.31
25080;BME280;13071;48.868;9.996;2023-04-25T06:49:16;95827.19;;;8.82;83.11
25080;BME280;13071;48.868;9.996;2023-04-25T06:51:42;95835.41;;;8.86;82.87
25080;BME280;13071;48.868;9.996;2023-04-25T06:54:09;95823.03;;;8.85;83.52
25080;BME280;13071;48.868;9.996;2023-04-25T06:56:36;95827.63;;;8.96;83.52
25080;BME280;13071;48.868;9.996;2023-04-25T06:59:02;95822.66;;;8.98;82.78
25080;BME280;13071;48.868;9.996;2023-04-25T07:01:29;95828.84;;;8.99;84.06
25080;BME280;13071;48.868;9.996;2023-04-25T07:03:56;95833.25;;;8.91;82.53
25080;BME280;13071;48.868;9.996;2023-04-25T07:06:24;95831.22;;;8.76;81.66
25080;BME280;13071;48.868;9.996;2023-04-25T07:08:52;95833.13;;;8.63;82.53
25080;BME280;13071;48.868;9.996;2023-04-25T07:11:18;95835.03;;;8.51;83.80
25080;BME280;13071;48.868;9.996;2023-04-25T07:13:45;95843.38;;;8.58;83.43
25080;BME280;13071;48.868;9.996;2023-04-25T07:16:11;95836.84;;;8.14;84.80
25080;BME280;13071;48.868;9.996;2023-04-25T07:18:38;95828.97;;;8.42;84.71
25080;BME280;13071;48.868;9.996;2023-04-25T07:21:05;95838.34;;;8.23;83.51
25080;BME280;13071;48.868;9.996;2023-04-25T07:23:33;95833.44;;;8.38;84.22
25080;BME280;13071;48.868;9.996;2023-04-25T07:25:59;95833.91;;;8.64;83.72
25080;BME280;13071;48.868;9.996;2023-04-25T07:28:26;95840.31;;;8.14;83.27
25080;BME280;13071;48.868;9.996;2023-04-25T07:30:52;95840.13;;;7.87;84.50
25080;BME280;13071;48.868;9.996;2023-04-25T07:33:19;95836.06;;;8.13;83.65
25080;BME280;13071;48.868;9.996;2023-04-25T07:35:46;95837.97;;;8.25;83.98
25080;BME280;13071;48.868;9.996;2023-04-25T07:38:13;95844.13;;;8.46;84.81
25080;BME280;13071;48.868;9.996;2023-04-25T07:40:41;95837.50;;;8.11;84.51
25080;BME280;13071;48.868;9.996;2023-04-25T07:43:07;95842.53;;;8.33;83.71
25080;BME280;13071;48.868;9.996;2023-04-25T07:45:34;95843.88;;;7.94;84.65
25080;BME280;13071;48.868;9.996;2023-04-25T07:48:01;95850.78;;;7.83;85.38
25080;BME280;13071;48.868;9.996;2023-04-25T07:50:28;95854.38;;;7.66;85.01
25080;BME280;13071;48.868;9.996;2023-04-25T07:52:54;95846.47;;;7.49;86.35
25080;BME280;13071;48.868;9.996;2023-04-25T07:55:21;95856.16;;;7.42;87.92
25080;BME280;13071;48.868;9.996;2023-04-25T07:57:49;95852.09;;;7.35;88.34
25080;BME280;13071;48.868;9.996;2023-04-25T08:00:16;95862.34;;;7.42;88.75
25080;BME280;13071;48.868;9.996;2023-04-25T08:02:43;95864.03;;;7.47;88.39
25080;BME280;13071;48.868;9.996;2023-04-25T08:05:09;95867.03;;;7.54;88.58
25080;BME280;13071;48.868;9.996;2023-04-25T08:07:39;95870.94;;;7.77;88.25
25080;BME280;13071;48.868;9.996;2023-04-25T08:10:07;95871.13;;;7.93;88.43
25080;BME280;13071;48.868;9.996;2023-04-25T08:12:33;95870.50;;;8.08;87.25
25080;BME280;13071;48.868;9.996;2023-04-25T08:15:01;95877.59;;;7.59;86.17
25080;BME280;13071;48.868;9.996;2023-04-25T08:17:28;95887.56;;;7.58;87.35
25080;BME280;13071;48.868;9.996;2023-04-25T08:19:54;95884.34;;;7.44;86.99
25080;BME280;13071;48.868;9.996;2023-04-25T08:22:22;95884.53;;;7.39;86.27
25080;BME280;13071;48.868;9.996;2023-04-25T08:24:48;95892.75;;;7.43;87.67
25080;BME280;13071;48.868;9.996;2023-04-25T08:27:15;95898.59;;;7.65;86.43
25080;BME280;13071;48.868;9.996;2023-04-25T08:29:41;95892.75;;;7.43;85.99
25080;BME280;13071;48.868;9.996;2023-04-25T08:32:10;95897.16;;;7.47;86.15
25080;BME280;13071;48.868;9.996;2023-04-25T08:34:36;95899.44;;;7.57;86.95
25080;BME280;13071;48.868;9.996;2023-04-25T08:37:04;95903.06;;;7.61;86.63
25080;BME280;13071;48.868;9.996;2023-04-25T08:39:31;95911.13;;;7.61;86.62
25080;BME280;13071;48.868;9.996;2023-04-25T08:41:57;95917.13;;;7.67;85.89
25080;BME280;13071;48.868;9.996;2023-04-25T08:44:24;95919.84;;;7.37;87.63
25080;BME280;13071;48.868;9.996;2023-04-25T08:46:52;95928.84;;;7.42;87.79
25080;BME280;13071;48.868;9.996;2023-04-25T08:49:19;95922.41;;;7.34;88.13
25080;BME280;13071;48.868;9.996;2023-04-25T08:51:46;95931.53;;;7.42;88.57
25080;BME280;13071;48.868;9.996;2023-04-25T08:54:15;95937.84;;;7.46;89.04
25080;BME280;13071;48.868;9.996;2023-04-25T08:56:44;95935.91;;;7.25;87.69
25080;BME280;13071;48.868;9.996;2023-04-25T08:59:12;95940.47;;;7.33;88.33
25080;BME280;13071;48.868;9.996;2023-04-25T09:01:38;95940.03;;;7.52;87.51
25080;BME280;13071;48.868;9.996;2023-04-25T09:04:05;95947.78;;;7.54;85.95
25080;BME280;13071;48.868;9.996;2023-04-25T09:06:33;95948.53;;;7.63;85.06
25080;BME280;13071;48.868;9.996;2023-04-25T09:09:02;95950.28;;;7.59;85.57
25080;BME280;13071;48.868;9.996;2023-04-25T09:11:29;95949.50;;;7.58;85.19
25080;BME280;13071;48.868;9.996;2023-04-25T09:14:10;95956.47;;;7.59;84.24
25080;BME280;13071;48.868;9.996;2023-04-25T09:16:57;95959.50;;;7.78;84.40
25080;BME280;13071;48.868;9.996;2023-04-25T09:19:25;95961.94;;;7.92;84.00
25080;BME280;13071;48.868;9.996;2023-04-25T09:21:55;95967.06;;;8.27;82.41
25080;BME280;13071;48.868;9.996;2023-04-25T09:24:35;95964.03;;;8.07;82.60
25080;BME280;13071;48.868;9.996;2023-04-25T09:27:04;95961.19;;;8.24;82.13
25080;BME280;13071;48.868;9.996;2023-04-25T09:29:31;95965.09;;;8.36;81.44
25080;BME280;13071;48.868;9.996;2023-04-25T09:32:19;95964.16;;;8.52;80.62
25080;BME280;13071;48.868;9.996;2023-04-25T09:34:47;95967.22;;;8.63;81.90
25080;BME280;13071;48.868;9.996;2023-04-25T09:37:18;95970.66;;;8.51;82.35
25080;BME280;13071;48.868;9.996;2023-04-25T09:39:46;95978.63;;;8.48;81.51
25080;BME280;13071;48.868;9.996;2023-04-25T09:42:13;95980.06;;;8.45;81.20
25080;BME280;13071;48.868;9.996;2023-04-25T09:44:42;95978.13;;;8.34;80.51
25080;BME280;13071;48.868;9.996;2023-04-25T09:47:09;95978.97;;;8.58;80.00
25080;BME280;13071;48.868;9.996;2023-04-25T09:49:39;95980.41;;;8.77;79.00
25080;BME280;13071;48.868;9.996;2023-04-25T09:52:07;95974.72;;;9.15;77.94
25080;BME280;13071;48.868;9.996;2023-04-25T09:54:35;95979.38;;;9.50;76.36
25080;BME280;13071;48.868;9.996;2023-04-25T09:57:08;95978.78;;;9.69;73.86
25080;BME280;13071;48.868;9.996;2023-04-25T09:59:38;95973.63;;;9.52;74.64
25080;BME280;13071;48.868;9.996;2023-04-25T10:02:07;95970.81;;;10.13;75.33
25080;BME280;13071;48.868;9.996;2023-04-25T10:04:35;95976.22;;;10.53;74.30
25080;BME280;13071;48.868;9.996;2023-04-25T10:07:03;95974.56;;;10.20;72.99
25080;BME280;13071;48.868;9.996;2023-04-25T10:09:31;95978.47;;;10.23;74.14
25080;BME280;13071;48.868;9.996;2023-04-25T10:12:00;95968.34;;;10.20;74.61
25080;BME280;13071;48.868;9.996;2023-04-25T10:14:27;95972.72;;;10.12;73.71
25080;BME280;13071;48.868;9.996;2023-04-25T10:16:55;95979.19;;;10.20;72.21
25080;BME280;13071;48.868;9.996;2023-04-25T10:19:23;95974.41;;;10.29;72.68
25080;BME280;13071;48.868;9.996;2023-04-25T10:21:52;95973.44;;;10.09;72.73
25080;BME280;13071;48.868;9.996;2023-04-25T10:24:21;95984.09;;;9.53;74.33
25080;BME280;13071;48.868;9.996;2023-04-25T10:26:48;95976.22;;;9.12;76.01
25080;BME280;13071;48.868;9.996;2023-04-25T10:29:23;95984.53;;;8.62;75.17
25080;BME280;13071;48.868;9.996;2023-04-25T10:31:50;95988.34;;;8.61;78.39
25080;BME280;13071;48.868;9.996;2023-04-25T10:34:17;95995.75;;;8.31;80.89
25080;BME280;13071;48.868;9.996;2023-04-25T10:36:49;95985.97;;;8.59;82.02
25080;BME280;13071;48.868;9.996;2023-04-25T10:39:21;95993.69;;;8.82;80.71
25080;BME280;13071;48.868;9.996;2023-04-25T10:41:53;95984.97;;;9.09;82.34
25080;BME280;13071;48.868;9.996;2023-04-25T10:44:23;95991.31;;;8.80;79.45
25080;BME280;13071;48.868;9.996;2023-04-25T10:46:52;95991.41;;;9.53;78.01
25080;BME280;13071;48.868;9.996;2023-04-25T10:49:31;95986.19;;;9.72;73.07
25080;BME280;13071;48.868;9.996;2023-04-25T10:52:12;95984.28;;;9.73;72.19
25080;BME280;13071;48.868;9.996;2023-04-25T10:54:45;95983.41;;;10.33;70.80
25080;BME280;13071;48.868;9.996;2023-04-25T10:57:32;95988.91;;;9.84;69.85
25080;BME280;13071;48.868;9.996;2023-04-25T11:00:08;95983.88;;;10.35;71.12
25080;BME280;13071;48.868;9.996;2023-04-25T11:02:45;95987.88;;;10.01;73.13
25080;BME280;13071;48.868;9.996;2023-04-25T11:05:22;95991.22;;;10.22;72.75
25080;BME280;13071;48.868;9.996;2023-04-25T11:07:50;95987.06;;;10.53;72.25
25080;BME280;13071;48.868;9.996;2023-04-25T11:10:18;95986.69;;;10.82;71.82
25080;BME280;13071;48.868;9.996;2023-04-25T11:12:45;95982.13;;;10.43;71.82
25080;BME280;13071;48.868;9.996;2023-04-25T11:15:13;95983.31;;;10.85;72.70
25080;BME280;13071;48.868;9.996;2023-04-25T11:17:40;95985.44;;;11.23;71.57
25080;BME280;13071;48.868;9.996;2023-04-25T11:20:07;95981.56;;;11.40;69.82
25080;BME280;13071;48.868;9.996;2023-04-25T11:22:37;95986.19;;;11.55;69.97
25080;BME280;13071;48.868;9.996;2023-04-25T11:25:08;95988.41;;;11.49;69.97
25080;BME280;13071;48.868;9.996;2023-04-25T11:27:37;95989.28;;;11.69;69.53
25080;BME280;13071;48.868;9.996;2023-04-25T11:30:14;95987.25;;;11.66;69.08
25080;BME280;13071;48.868;9.996;2023-04-25T11:32:41;95992.06;;;11.57;72.82
25080;BME280;13071;48.868;9.996;2023-04-25T11:35:08;95990.06;;;11.22;70.47
25080;BME280;13071;48.868;9.996;2023-04-25T11:37:35;96000.69;;;10.84;70.90
25080;BME280;13071;48.868;9.996;2023-04-25T11:40:02;96009.75;;;10.92;73.00
25080;BME280;13071;48.868;9.996;2023-04-25T11:42:31;96009.69;;;10.60;78.33
25080;BME280;13071;48.868;9.996;2023-04-25T11:44:58;96019.22;;;10.42;81.44
25080;BME280;13071;48.868;9.996;2023-04-25T11:47:29;96024.25;;;10.16;83.86
25080;BME280;13071;48.868;9.996;2023-04-25T11:49:57;96015.25;;;9.87;84.48
25080;BME280;13071;48.868;9.996;2023-04-25T11:52:24;96033.38;;;9.63;86.18
25080;BME280;13071;48.868;9.996;2023-04-25T11:54:50;96032.78;;;9.33;86.38
25080;BME280;13071;48.868;9.996;2023-04-25T11:57:19;96021.09;;;9.17;86.75
25080;BME280;13071;48.868;9.996;2023-04-25T11:59:45;96034.47;;;9.25;87.94
25080;BME280;13071;48.868;9.996;2023-04-25T12:02:24;96040.03;;;8.96;88.59
25080;BME280;13071;48.868;9.996;2023-04-25T12:04:52;96044.16;;;8.81;85.84
25080;BME280;13071;48.868;9.996;2023-04-25T12:07:18;96054.06;;;8.56;83.30
25080;BME280;13071;48.868;9.996;2023-04-25T12:09:51;96052.88;;;8.45;84.92
25080;BME280;13071;48.868;9.996;2023-04-25T12:12:18;96056.31;;;8.34;85.25
25080;BME280;13071;48.868;9.996;2023-04-25T12:14:46;96061.66;;;8.13;86.38
25080;BME280;13071;48.868;9.996;2023-04-25T12:17:14;96062.59;;;8.17;87.61
25080;BME280;13071;48.868;9.996;2023-04-25T12:19:40;96063.63;;;8.24;87.42
25080;BME280;13071;48.868;9.996;2023-04-25T12:22:21;96060.25;;;8.36;89.38
25080;BME280;13071;48.868;9.996;2023-04-25T12:24:47;96071.94;;;8.40;89.21
25080;BME280;13071;48.868;9.996;2023-04-25T12:27:16;96063.47;;;8.50;88.15
25080;BME280;13071;48.868;9.996;2023-04-25T12:29:50;96076.03;;;8.46;88.75
25080;BME280;13071;48.868;9.996;2023-04-25T12:32:17;96069.72;;;8.63;89.32
25080;BME280;13071;48.868;9.996;2023-04-25T12:34:44;96076.03;;;8.67;87.91
25080;BME280;13071;48.868;9.996;2023-04-25T12:37:11;96071.03;;;8.78;87.28
25080;BME280;13071;48.868;9.996;2023-04-25T12:39:39;96080.22;;;8.77;87.82
25080;BME280;13071;48.868;9.996;2023-04-25T12:42:06;96078.94;;;8.62;86.42
25080;BME280;13071;48.868;9.996;2023-04-25T12:44:33;96077.63;;;8.68;87.51
25080;BME280;13071;48.868;9.996;2023-04-25T12:46:59;96081.72;;;8.86;88.89
25080;BME280;13071;48.868;9.996;2023-04-25T12:49:26;96082.75;;;8.94;90.98
25080;BME280;13071;48.868;9.996;2023-04-25T12:51:52;96078.03;;;8.91;90.86
25080;BME280;13071;48.868;9.996;2023-04-25T12:54:19;96093.03;;;9.00;91.33
25080;BME280;13071;48.868;9.996;2023-04-25T12:56:47;96093.94;;;9.04;90.93
25080;BME280;13071;48.868;9.996;2023-04-25T12:59:13;96099.59;;;9.24;90.78
25080;BME280;13071;48.868;9.996;2023-04-25T13:01:40;96109.34;;;9.37;89.16
25080;BME280;13071;48.868;9.996;2023-04-25T13:04:07;96106.53;;;9.45;89.49
25080;BME280;13071;48.868;9.996;2023-04-25T13:06:33;96112.50;;;9.51;86.88
25080;BME280;13071;48.868;9.996;2023-04-25T13:09:00;96114.44;;;9.75;88.69
25080;BME280;13071;48.868;9.996;2023-04-25T13:11:27;96118.38;;;9.77;87.39
25080;BME280;13071;48.868;9.996;2023-04-25T13:13:55;96113.91;;;9.93;85.89